Time;durP1;ratioP1;P1;durP2;ratioP2;P2;SDS_P1;SDS_P2;PMS_P1;PMS_P2;Temp;Humidity;BMP_temperature;BMP_pressure;BME280_temperature;BME280_humidity;BME280_pressure;Samples;Min_cycle;Max_cycle;Signal;HPM_P1;HPM_P2
2023/07/20 00:00:59;;;;;;;6.88;6.38;;;;;;;25.01;100.00;827.59;5073865;28;20185;-65
2023/07/20 00:03:26;;;;;;;6.65;6.15;;;;;;;25.06;100.00;500.81;5073736;28;20205;-65
2023/07/20 00:05:53;;;;;;;9.43;6.65;;;;;;;25.12;100.00;1482.63;5073754;28;20193;-65
2023/07/20 00:08:20;;;;;;;6.90;6.53;;;;;;;24.94;100.00;2462.66;5074004;28;20188;-65
2023/07/20 00:10:49;;;;;;;6.75;6.22;;;;;;;24.84;100.00;4752.44;5073905;28;20235;-66
2023/07/20 00:13:18;;;;;;;6.82;6.32;;;;;;;24.94;100.00;4099.00;5073938;28;20500;-65
2023/07/20 00:15:45;;;;;;;7.05;6.75;;;;;;;24.88;100.00;3116.44;5073878;28;20563;-66
2023/07/20 00:18:12;;;;;;;6.75;6.30;;;;;;;25.13;100.00;6066.50;5073609;28;20177;-65
2023/07/20 00:20:39;;;;;;;7.28;6.68;;;;;;;25.22;100.00;7051.13;5073473;28;20280;-64
2023/07/20 00:23:06;;;;;;;7.10;6.65;;;;;;;25.23;100.00;9346.63;5073206;28;20208;-66
2023/07/20 00:25:33;;;;;;;7.50;6.80;;;;;;;25.26;100.00;9019.25;5073716;28;20199;-65
2023/07/20 00:28:01;;;;;;;9.30;6.82;;;;;;;25.22;100.00;8034.72;5073344;28;20188;-66
2023/07/20 00:30:28;;;;;;;7.40;6.78;;;;;;;25.07;100.00;7048.56;5073599;28;20193;-65
2023/07/20 00:32:55;;;;;;;8.93;6.78;;;;;;;25.15;100.00;6066.81;5073267;28;20184;-65
2023/07/20 00:35:22;;;;;;;7.72;7.05;;;;;;;25.16;100.00;8361.38;5073562;28;20574;-65
2023/07/20 00:37:49;;;;;;;7.25;6.82;;;;;;;25.11;100.00;9672.22;5073125;28;20189;-65
2023/07/20 00:40:17;;;;;;;9.45;7.05;;;;;;;24.74;100.00;9664.44;5073345;28;20280;-65
2023/07/20 00:42:44;;;;;;;7.70;6.95;;;;;;;24.78;100.00;6388.69;5072936;28;20217;-65
2023/07/20 00:45:13;;;;;;;7.72;7.03;;;;;;;24.62;100.00;3113.59;5073218;28;20645;-66
2023/07/20 00:47:39;;;;;;;7.50;7.20;;;;;;;24.41;100.00;6382.84;5073152;28;20204;-64
2023/07/20 00:50:07;;;;;;;9.18;7.60;;;;;;;24.38;100.00;1803.47;5073001;28;20189;-65
2023/07/20 00:52:35;;;;;;;8.20;7.60;;;;;;;24.46;100.00;1150.50;5072733;28;20232;-65
2023/07/20 00:55:02;;;;;;;8.10;7.53;;;;;;;24.52;100.00;-1136.13;5072965;28;20189;-65
2023/07/20 00:57:29;;;;;;;7.72;7.13;;;;;;;24.58;100.00;170.97;5073092;28;20188;-65
2023/07/20 00:59:56;;;;;;;7.65;7.18;;;;;;;24.62;100.00;1478.63;5072723;28;20220;-65
2023/07/20 01:02:24;;;;;;;7.85;7.45;;;;;;;24.67;100.00;2460.03;5072673;28;20190;-65
2023/07/20 01:04:52;;;;;;;8.25;6.93;;;;;;;24.53;100.00;6384.78;5072509;28;20209;-65
2023/07/20 01:07:26;;;;;;;9.38;7.75;;;;;;;24.60;100.00;5403.75;5072980;28;20204;-64
2023/07/20 01:10:00;;;;;;;8.60;7.97;;;;;;;24.45;100.00;6383.41;5072777;28;20558;-65
2023/07/20 01:12:31;;;;;;;8.48;7.45;;;;;;;24.47;100.00;4747.53;5072409;28;20185;-65
2023/07/20 01:14:58;;;;;;;7.97;7.00;;;;;;;24.52;100.00;6712.00;5072346;28;20181;-65
2023/07/20 01:17:27;;;;;;;8.35;7.72;;;;;;;24.49;100.00;7038.81;5072330;28;20192;-65
2023/07/20 01:19:53;;;;;;;8.07;7.68;;;;;;;24.37;100.00;8346.50;5072539;28;20247;-65
2023/07/20 01:22:40;;;;;;;7.32;6.60;;;;;;;24.16;100.00;8342.47;5072560;28;20528;-65
2023/07/20 01:25:33;;;;;;;11.05;7.30;;;;;;;24.16;100.00;6706.03;5072442;28;20181;-65
2023/07/20 01:28:32;;;;;;;8.82;7.32;;;;;;;24.00;100.00;9648.91;5054275;28;20203;-65
2023/07/20 01:31:15;;;;;;;7.60;7.20;;;;;;;24.14;100.00;7032.91;5071886;28;20606;-65
2023/07/20 01:33:43;;;;;;;7.80;7.32;;;;;;;24.17;100.00;8670.06;5072072;28;20192;-67
2023/07/20 01:36:11;;;;;;;8.10;7.28;;;;;;;24.20;100.00;10963.28;5072065;28;20185;-64
2023/07/20 01:38:39;;;;;;;8.23;7.53;;;;;;;24.13;100.00;6051.31;5072358;28;20211;-65
2023/07/20 01:41:06;;;;;;;8.23;7.93;;;;;;;24.26;100.00;4744.66;5072221;28;20238;-65
2023/07/20 01:43:33;;;;;;;8.25;7.68;;;;;;;24.24;100.00;13258.81;5072114;28;20208;-64
2023/07/20 01:46:00;;;;;;;8.65;6.82;;;;;;;24.14;100.00;42563.44;5072168;28;20496;-66
2023/07/20 01:48:28;;;;;;;7.10;6.57;;;;;;;24.10;100.00;47856.16;5071607;28;20188;-65
2023/07/20 01:50:55;;;;;;;7.10;6.70;;;;;;;24.18;100.00;44219.91;5071597;28;20272;-66
2023/07/20 01:53:22;;;;;;;7.57;7.10;;;;;;;24.12;100.00;45208.84;5071952;28;20558;-64
2023/07/20 01:55:49;;;;;;;7.18;6.85;;;;;;;24.19;100.00;48857.22;5071894;28;20180;-65
2023/07/20 01:58:16;;;;;;;8.30;7.70;;;;;;;24.21;100.00;50515.88;5071933;28;20662;-65
2023/07/20 02:00:42;;;;;;;7.07;6.88;;;;;;;24.25;100.00;44225.69;5071536;28;20180;-64
2023/07/20 02:03:10;;;;;;;7.22;6.90;;;;;;;24.19;100.00;32328.41;5071689;28;20192;-65
2023/07/20 02:05:38;;;;;;;8.48;7.97;;;;;;;24.12;100.00;26065.81;5071363;28;20195;-65
2023/07/20 02:08:05;;;;;;;7.68;7.38;;;;;;;24.04;100.00;22773.25;5071499;28;20192;-65
2023/07/20 02:10:32;;;;;;;8.40;7.68;;;;;;;24.02;100.00;25403.25;5071835;28;20184;-66
2023/07/20 02:12:59;;;;;;;7.60;7.30;;;;;;;23.96;100.00;25071.50;5071601;28;20295;-65
2023/07/20 02:15:27;;;;;;;8.35;7.70;;;;;;;24.02;100.00;27377.50;5071556;28;20189;-65
2023/07/20 02:17:53;;;;;;;7.57;7.18;;;;;;;24.02;100.00;29353.44;5071463;28;20267;-64
2023/07/20 02:20:21;;;;;;;7.55;7.15;;;;;;;24.04;100.00;29683.91;5071292;28;20193;-65
2023/07/20 02:22:49;;;;;;;7.25;6.85;;;;;;;24.11;100.00;31664.97;5071656;28;20188;-65
2023/07/20 02:25:16;;;;;;;8.48;7.72;;;;;;;24.00;100.00;34956.28;5071544;28;20208;-66
2023/07/20 02:27:42;;;;;;;7.80;7.28;;;;;;;24.21;100.00;40253.31;5071493;28;20215;-65
2023/07/20 02:30:10;;;;;;;7.43;6.95;;;;;;;24.24;100.00;39594.38;5071593;28;20575;-65
2023/07/20 02:32:37;;;;;;;7.68;7.15;;;;;;;24.27;100.00;41249.44;5071265;28;20185;-65
2023/07/20 02:35:05;;;;;;;7.70;7.10;;;;;;;24.31;100.00;44560.94;5071458;28;20628;-64
2023/07/20 02:37:32;;;;;;;6.97;6.78;;;;;;;24.27;100.00;51184.38;5071233;28;20212;-66
2023/07/20 02:40:02;;;;;;;11.35;7.00;;;;;;;24.33;100.00;49532.09;5071120;28;20189;-64
2023/07/20 02:42:29;;;;;;;8.95;8.25;;;;;;;24.29;100.00;58822.97;5073065;28;20275;-65
2023/07/20 02:44:56;;;;;;;8.25;7.55;;;;;;;24.26;100.00;57823.41;5075097;28;20383;-65
2023/07/20 02:47:23;;;;;;;8.40;7.90;;;;;;;24.29;100.00;58822.97;5075477;28;20189;-65
2023/07/20 02:49:50;;;;;;;8.77;8.38;;;;;;;24.16;100.00;61470.13;5075174;28;20303;-65
2023/07/20 02:52:17;;;;;;;9.60;9.10;;;;;;;24.33;100.00;61820.22;5075501;28;20572;-65
2023/07/20 02:54:44;;;;;;;9.93;9.15;;;;;;;24.34;100.00;66483.28;5075380;28;20643;-65
2023/07/20 02:57:12;;;;;;;10.20;9.30;;;;;;;24.53;100.00;75181.47;5075165;28;20197;-65
2023/07/20 02:59:39;;;;;;;10.82;10.23;;;;;;;24.60;100.00;80206.06;5074881;28;20196;-65
2023/07/20 03:02:09;;;;;;;12.65;9.77;;;;;;;24.64;100.00;88923.56;5075315;28;20311;-65
2023/07/20 03:04:36;;;;;;;10.90;10.23;;;;;;;24.65;100.00;91275.41;5074994;28;20536;-65
2023/07/20 03:07:05;;;;;;;10.70;9.80;;;;;;;24.66;100.00;96653.44;5074851;28;20200;-65
2023/07/20 03:09:32;;;;;;;12.05;10.95;;;;;;;24.66;100.00;99008.28;5074743;28;20189;-65
2023/07/20 03:11:59;;;;;;;10.68;9.88;;;;;;;24.61;100.00;97990.63;5074604;28;20184;-66
2023/07/20 03:14:27;;;;;;;9.93;9.02;;;;;;;24.68;100.00;101704.91;5075004;28;20567;-64
2023/07/20 03:16:54;;;;;;;13.57;9.45;;;;;;;24.47;100.00;97631.16;5074941;28;20189;-64
2023/07/20 03:19:21;;;;;;;10.57;9.68;;;;;;;24.81;100.00;97350.72;5074544;28;20193;-64
2023/07/20 03:21:48;;;;;;;10.48;9.50;;;;;;;24.82;100.00;105435.56;5074748;28;20563;-65
2023/07/20 03:24:15;;;;;;;9.68;8.90;;;;;;;24.76;100.00;106437.53;5074529;28;20307;-65
2023/07/20 03:26:42;;;;;;;11.98;9.38;;;;;;;25.21;100.00;134984.72;5074334;28;20191;-65
2023/07/20 03:29:09;;;;;;;10.57;9.07;;;;;;;25.68;100.00;152498.84;5074802;28;20663;-65
2023/07/20 03:31:37;;;;;;;11.00;10.10;;;;;;;25.90;100.00;152555.09;5074659;28;20532;-65
2023/07/20 03:34:05;;;;;;;9.63;8.88;;;;;;;26.28;100.00;152649.75;5074625;28;20197;-65
2023/07/20 03:36:32;;;;;;;10.63;8.93;;;;;;;26.23;100.00;152638.22;5074545;28;20646;-65
2023/07/20 03:38:59;;;;;;;9.73;8.88;;;;;;;26.26;100.00;152645.94;5074259;28;20188;-66
2023/07/20 03:41:25;;;;;;;9.00;8.32;;;;;;;26.19;100.00;152627.97;5074536;28;20189;-65
2023/07/20 03:43:52;;;;;;;16.85;9.38;;;;;;;26.20;100.00;152629.28;5074148;28;20216;-65
2023/07/20 03:46:19;;;;;;;18.17;8.82;;;;;;;26.15;100.00;152616.44;5073960;28;20185;-66
2023/07/20 03:48:47;;;;;;;10.18;8.15;;;;;;;26.16;100.00;152619.03;5073982;28;20185;-65
2023/07/20 03:51:14;;;;;;;15.35;8.00;;;;;;;26.31;100.00;152658.69;5073650;28;20241;-65
2023/07/20 03:53:42;;;;;;;23.63;8.23;;;;;;;26.51;100.00;152707.28;5073643;28;20681;-65
2023/07/20 03:56:09;;;;;;;16.92;7.93;;;;;;;26.85;100.00;152793.03;5073960;28;20654;-65
2023/07/20 03:58:36;;;;;;;16.05;7.80;;;;;;;27.00;100.00;152831.38;5073853;28;20185;-65
2023/07/20 04:01:03;;;;;;;13.75;8.05;;;;;;;27.47;100.00;152950.34;5073795;28;20185;-65
2023/07/20 04:03:30;;;;;;;17.73;8.48;;;;;;;27.51;100.00;152961.91;5073756;28;20185;-65
2023/07/20 04:05:58;;;;;;;10.02;8.32;;;;;;;28.02;100.00;153091.16;5074214;28;20201;-66
2023/07/20 04:08:25;;;;;;;19.38;8.07;;;;;;;28.08;100.00;153105.25;5073736;28;20636;-65
2023/07/20 04:10:52;;;;;;;14.38;7.50;;;;;;;28.26;100.00;153151.41;5073576;28;20564;-65
2023/07/20 04:13:19;;;;;;;14.73;8.73;;;;;;;28.48;100.00;153207.69;5073442;28;20185;-65
2023/07/20 04:15:46;;;;;;;16.15;7.97;;;;;;;28.47;100.00;153205.19;5073503;28;20191;-66
2023/07/20 04:18:13;;;;;;;15.88;8.13;;;;;;;28.25;100.00;153148.84;5073661;28;20275;-66
2023/07/20 04:20:40;;;;;;;13.38;8.98;;;;;;;28.15;100.00;153124.50;5073817;28;20189;-64
2023/07/20 04:23:08;;;;;;;10.27;7.88;;;;;;;27.84;100.00;153045.09;5073351;28;20185;-65
2023/07/20 04:25:41;;;;;;;11.65;8.75;;;;;;;27.61;100.00;152987.53;5055355;28;20201;-65
2023/07/20 04:28:11;;;;;;;14.00;8.18;;;;;;;27.68;100.00;153005.44;5073725;28;20192;-65
2023/07/20 04:30:39;;;;;;;14.30;8.73;;;;;;;27.61;100.00;152987.53;5073354;28;20185;-66
2023/07/20 04:33:06;;;;;;;10.75;7.68;;;;;;;27.46;100.00;152949.06;5073323;28;20555;-65
2023/07/20 04:35:53;;;;;;;20.02;9.02;;;;;;;27.54;100.00;152969.56;5073392;28;20264;-64
2023/07/20 04:38:22;;;;;;;14.25;8.57;;;;;;;27.59;100.00;152981.09;5073517;28;20239;-65
2023/07/20 04:40:50;;;;;;;12.70;8.13;;;;;;;27.57;100.00;152977.28;5073320;28;20654;-65
2023/07/20 04:43:18;;;;;;;22.20;8.75;;;;;;;27.63;100.00;152992.63;5073271;28;20200;-65
2023/07/20 04:45:46;;;;;;;16.85;8.68;;;;;;;27.77;100.00;153025.91;5072874;28;20215;-64
2023/07/20 04:48:14;;;;;;;16.98;8.88;;;;;;;28.00;100.00;153086.06;5073304;28;20189;-66
2023/07/20 04:50:42;;;;;;;15.93;9.13;;;;;;;28.24;100.00;153146.25;5072718;28;20185;-64
2023/07/20 04:53:10;;;;;;;33.05;9.93;;;;;;;28.54;100.00;153223.09;5072934;28;20191;-66
2023/07/20 04:55:39;;;;;;;18.77;8.38;;;;;;;28.87;100.00;153305.06;5072932;28;20610;-65
2023/07/20 04:58:06;;;;;;;11.88;7.13;;;;;;;29.16;100.00;153378.03;5072867;28;20192;-65
2023/07/20 05:00:34;;;;;;;8.57;7.45;;;;;;;29.35;100.00;153426.78;5072881;28;20610;-65
2023/07/20 05:03:01;;;;;;;12.02;6.70;;;;;;;29.57;100.00;153483.19;5073059;28;20646;-65
2023/07/20 05:05:28;;;;;;;13.85;7.15;;;;;;;29.77;100.00;153533.13;5071845;28;20216;-63
2023/07/20 05:07:54;;;;;;;20.48;7.20;;;;;;;30.03;100.00;153599.81;5072916;28;20196;-65
2023/07/20 05:10:21;;;;;;;25.80;6.80;;;;;;;30.29;100.00;153665.19;5072403;28;20184;-63
2023/07/20 05:12:49;;;;;;;17.70;6.78;;;;;;;30.50;100.00;153717.78;5072518;28;20587;-69
2023/07/20 05:15:16;;;;;;;19.05;7.00;;;;;;;30.45;100.00;153704.94;5072595;28;20212;-61
2023/07/20 05:17:43;;;;;;;12.50;6.95;;;;;;;30.56;100.00;153733.13;5072358;28;20204;-64
2023/07/20 05:20:12;;;;;;;14.70;6.85;;;;;;;30.54;100.00;153729.31;5072261;28;20195;-66
2023/07/20 05:22:39;;;;;;;14.65;7.07;;;;;;;30.79;100.00;153792.13;5072480;28;20193;-67
2023/07/20 05:25:09;;;;;;;9.68;6.80;;;;;;;30.94;100.00;153830.56;5072312;28;20305;-62
2023/07/20 05:27:37;;;;;;;14.75;6.72;;;;;;;31.10;100.00;153870.41;5072111;28;20254;-63
2023/07/20 05:30:07;;;;;;;18.80;7.15;;;;;;;31.14;100.00;153880.66;5071917;28;20193;-63
2023/07/20 05:32:34;;;;;;;29.23;7.15;;;;;;;30.99;100.00;153843.38;5073983;28;20185;-65
2023/07/20 05:35:01;;;;;;;22.45;7.00;;;;;;;31.40;100.00;153947.34;5072410;28;20216;-64
2023/07/20 05:37:27;;;;;;;28.17;6.72;;;;;;;31.44;100.00;153956.31;5072417;28;20685;-63
2023/07/20 05:39:54;;;;;;;17.77;5.57;;;;;;;31.67;100.00;154015.34;5072105;28;20173;-67
2023/07/20 05:42:25;;;;;;;9.60;6.72;;;;;;;31.42;100.00;153951.16;5072173;28;20188;-66
2023/07/20 05:44:52;;;;;;;7.03;6.03;;;;;;;31.69;100.00;154020.50;5072337;28;20686;-65
2023/07/20 05:47:21;;;;;;;8.57;7.35;;;;;;;31.68;100.00;154017.91;5071831;28;20191;-65
2023/07/20 05:49:48;;;;;;;15.98;7.10;;;;;;;31.80;100.00;154047.41;5071741;28;20688;-65
2023/07/20 05:52:15;;;;;;;14.93;7.00;;;;;;;32.05;100.00;154111.53;5071347;28;20698;-66
2023/07/20 05:54:41;;;;;;;20.48;7.72;;;;;;;32.14;100.00;154135.97;5071855;28;20192;-64
2023/07/20 05:57:09;;;;;;;16.85;8.30;;;;;;;32.03;100.00;154106.44;5072120;28;20189;-65
2023/07/20 05:59:36;;;;;;;11.20;7.68;;;;;;;32.29;100.00;154171.94;5071913;28;20641;-66
2023/07/20 06:02:03;;;;;;;13.95;6.72;;;;;;;32.76;100.00;154291.34;5071832;28;20199;-63
2023/07/20 06:04:31;;;;;;;20.02;7.35;;;;;;;33.07;100.00;154372.19;5071834;28;20413;-63
2023/07/20 06:06:58;;;;;;;12.85;7.45;;;;;;;32.84;100.00;154313.16;5071806;28;20220;-62
2023/07/20 06:09:25;;;;;;;33.38;8.52;;;;;;;32.79;100.00;154300.31;5072636;28;20200;-64
2023/07/20 06:11:52;;;;;;;16.90;7.03;;;;;;;32.73;100.00;154283.59;5072408;28;20191;-64
2023/07/20 06:14:19;;;;;;;16.40;7.07;;;;;;;33.34;100.00;154440.28;5072288;28;20185;-64
2023/07/20 06:16:46;;;;;;;15.60;5.88;;;;;;;33.54;100.00;154490.34;5072853;28;20315;-65
2023/07/20 06:19:16;;;;;;;13.25;5.88;;;;;;;33.92;99.93;154588.00;5072818;28;20185;-63
2023/07/20 06:21:44;;;;;;;16.95;4.75;;;;;;;33.97;90.59;154599.56;5073244;28;20193;-64
2023/07/20 06:24:11;;;;;;;6.85;4.13;;;;;;;33.80;86.10;154557.19;5071854;28;20180;-63
2023/07/20 06:26:39;;;;;;;7.43;3.88;;;;;;;33.26;88.14;154418.47;5072389;28;20204;-62
2023/07/20 06:29:07;;;;;;;8.07;3.63;;;;;;;33.14;89.98;154387.66;5072962;28;20189;-65
2023/07/20 06:31:34;;;;;;;7.10;3.03;;;;;;;33.01;90.61;154356.81;5072939;28;20251;-64
2023/07/20 06:34:01;;;;;;;10.73;3.13;;;;;;;32.69;90.61;154274.63;5038311;28;20203;-65
2023/07/20 06:36:28;;;;;;;9.25;3.38;;;;;;;32.40;90.78;154200.16;5073388;28;20623;-66
2023/07/20 06:38:58;;;;;;;10.27;3.33;;;;;;;31.91;94.68;154075.66;5074683;28;20195;-65
2023/07/20 06:41:25;;;;;;;9.73;3.60;;;;;;;31.89;96.65;154070.50;5072506;28;20315;-65
2023/07/20 06:43:52;;;;;;;15.00;3.45;;;;;;;31.67;96.71;154015.34;5072958;28;20192;-65
2023/07/20 06:46:19;;;;;;;7.72;3.13;;;;;;;31.78;97.20;154042.31;5072631;28;20212;-67
2023/07/20 06:48:46;;;;;;;7.63;3.15;;;;;;;31.61;100.00;153999.97;5072038;28;20196;-63
2023/07/20 06:51:13;;;;;;;14.63;3.35;;;;;;;31.29;100.00;153920.38;5071435;28;20637;-61
2023/07/20 06:53:39;;;;;;;13.63;3.85;;;;;;;31.28;100.00;153916.53;5071844;28;20211;-64
2023/07/20 06:56:08;;;;;;;11.63;3.75;;;;;;;31.13;100.00;153878.06;5071585;28;20177;-64
2023/07/20 06:58:35;;;;;;;11.48;4.50;;;;;;;30.90;100.00;153820.31;5053516;28;20287;-64
2023/07/20 07:01:06;;;;;;;6.70;3.45;;;;;;;30.38;100.00;153688.25;5072073;28;20184;-65
2023/07/20 07:03:36;;;;;;;12.07;3.63;;;;;;;30.00;100.00;153592.13;5072308;28;20215;-64
2023/07/20 07:06:04;;;;;;;19.60;4.15;;;;;;;29.83;100.00;153549.75;5070831;28;20304;-65
2023/07/20 07:08:31;;;;;;;12.40;6.88;;;;;;;29.66;100.00;153504.94;5073030;28;20288;-65
2023/07/20 07:10:58;;;;;;;11.90;3.88;;;;;;;29.60;100.00;153489.56;5072039;28;20630;-64
2023/07/20 07:13:26;;;;;;;12.32;3.72;;;;;;;29.46;100.00;153454.97;5070310;28;20201;-64
2023/07/20 07:15:56;;;;;;;16.08;4.53;;;;;;;29.63;100.00;153498.53;5075120;28;20205;-64
2023/07/20 07:18:24;;;;;;;29.10;6.57;;;;;;;29.73;100.00;153522.88;5072892;28;20185;-64
2023/07/20 07:20:53;;;;;;;31.50;6.72;;;;;;;29.84;100.00;153551.03;5071789;28;20238;-65
2023/07/20 07:23:35;;;;;;;8.27;3.70;;;;;;;29.92;100.00;153571.59;5073243;28;20227;-65
2023/07/20 07:26:02;;;;;;;9.82;5.50;;;;;;;30.17;100.00;153635.66;5072800;28;20653;-65
2023/07/20 07:28:31;;;;;;;8.13;3.70;;;;;;;30.42;100.00;153697.22;5073238;28;20181;-63
2023/07/20 07:30:59;;;;;;;12.57;3.83;;;;;;;30.58;100.00;153738.28;5077281;28;20185;-65
2023/07/20 07:33:26;;;;;;;12.00;3.20;;;;;;;30.67;100.00;153762.66;5076096;28;20639;-65
2023/07/20 07:35:53;;;;;;;7.07;3.28;;;;;;;30.75;100.00;153781.88;5077067;28;20189;-65
2023/07/20 07:38:20;;;;;;;9.38;3.10;;;;;;;30.68;100.00;153763.94;5081798;28;20255;-65
2023/07/20 07:40:47;;;;;;;11.40;3.47;;;;;;;30.81;100.00;153797.22;5083058;28;20670;-66
2023/07/20 07:43:14;;;;;;;12.63;2.83;;;;;;;30.88;100.00;153813.91;5075772;28;20272;-63
2023/07/20 07:45:43;;;;;;;5.70;2.92;;;;;;;30.87;100.00;153812.63;5075225;28;20666;-63
2023/07/20 07:48:12;;;;;;;8.98;3.08;;;;;;;30.98;100.00;153840.81;5074663;28;20206;-63
2023/07/20 07:50:40;;;;;;;5.82;2.92;;;;;;;31.10;100.00;153870.41;5074824;28;20580;-66
2023/07/20 07:53:07;;;;;;;8.70;2.83;;;;;;;31.35;100.00;153933.22;5075764;28;20246;-63
2023/07/20 07:55:34;;;;;;;3.40;2.35;;;;;;;31.48;100.00;153966.56;5074932;28;20177;-63
2023/07/20 07:58:00;;;;;;;6.50;2.80;;;;;;;31.38;100.00;153940.91;5075004;28;20499;-63
2023/07/20 08:00:27;;;;;;;4.20;2.45;;;;;;;31.23;100.00;153904.97;5075526;28;20185;-66
2023/07/20 08:02:56;;;;;;;5.97;2.50;;;;;;;31.19;100.00;153893.47;5076742;28;20184;-66
2023/07/20 08:05:22;;;;;;;10.77;3.88;;;;;;;31.00;100.00;153846.03;5075716;28;20295;-65
2023/07/20 08:07:49;;;;;;;8.07;3.15;;;;;;;31.00;100.00;153846.03;5076520;28;20192;-66
2023/07/20 08:10:16;;;;;;;12.73;2.75;;;;;;;31.10;100.00;153871.69;5076206;28;20281;-64
2023/07/20 08:12:43;;;;;;;2.70;2.50;;;;;;;30.79;100.00;153793.41;5077572;28;20192;-64
2023/07/20 08:15:12;;;;;;;5.55;2.88;;;;;;;30.83;100.00;153803.66;5075488;28;20615;-64
2023/07/20 08:17:38;;;;;;;7.93;2.55;;;;;;;31.07;100.00;153863.94;5074525;28;20185;-64
2023/07/20 08:20:09;;;;;;;4.85;2.30;;;;;;;30.91;100.00;153822.88;5076261;28;20241;-65
2023/07/20 08:22:36;;;;;;;7.97;3.05;;;;;;;30.93;100.00;153828.03;5076992;28;20303;-64
2023/07/20 08:25:03;;;;;;;6.15;3.15;;;;;;;31.16;100.00;153887.03;5058130;28;20204;-65
2023/07/20 08:27:35;;;;;;;2.38;2.17;;;;;;;31.36;100.00;153937.03;5076777;28;20189;-67
2023/07/20 08:30:02;;;;;;;7.38;2.70;;;;;;;31.61;100.00;153999.97;5075534;28;20187;-65
2023/07/20 08:32:30;;;;;;;11.27;2.97;;;;;;;31.47;100.00;153965.28;5075536;28;20650;-65
2023/07/20 08:34:56;;;;;;;7.10;3.20;;;;;;;31.71;99.99;154025.59;5088241;28;20192;-64
2023/07/20 08:37:25;;;;;;;9.88;3.42;;;;;;;31.61;100.00;154001.25;5096037;28;20184;-66
2023/07/20 08:39:51;;;;;;;11.45;3.70;;;;;;;31.79;100.00;154044.81;5096789;28;20658;-67
2023/07/20 08:42:18;;;;;;;8.48;2.80;;;;;;;32.26;98.25;154165.47;5096332;28;20184;-67
2023/07/20 08:44:48;;;;;;;6.60;3.30;;;;;;;32.20;96.92;154150.13;5095670;28;20196;-66
2023/07/20 08:47:17;;;;;;;6.95;3.15;;;;;;;32.10;96.96;154125.72;5094843;28;20208;-66
2023/07/20 08:49:49;;;;;;;10.63;3.50;;;;;;;32.11;96.06;154128.31;5096277;28;20194;-66
2023/07/20 08:52:16;;;;;;;10.73;3.08;;;;;;;32.60;94.59;154251.47;5095542;28;20243;-66
2023/07/20 08:54:44;;;;;;;29.70;4.85;;;;;;;32.83;92.40;154310.56;5094981;28;20381;-66
2023/07/20 08:57:14;;;;;;;24.67;6.25;;;;;;;33.15;91.02;154390.19;5096574;28;20199;-67
2023/07/20 08:59:44;;;;;;;14.35;4.20;;;;;;;33.32;83.55;154433.84;5095873;28;20183;-67
2023/07/20 09:02:17;;;;;;;8.40;3.28;;;;;;;33.45;81.41;154468.53;5096890;28;20191;-66
2023/07/20 09:04:45;;;;;;;5.72;3.35;;;;;;;33.85;81.30;154570.03;5096215;28;20238;-65
2023/07/20 09:07:13;;;;;;;9.13;3.80;;;;;;;34.06;77.00;154622.69;5096672;28;20228;-65
2023/07/20 09:09:42;;;;;;;8.80;4.25;;;;;;;34.03;76.91;154615.00;5097431;28;20188;-66
2023/07/20 09:12:15;;;;;;;5.60;3.28;;;;;;;34.26;77.77;154672.81;5096933;28;20250;-65
2023/07/20 09:14:44;;;;;;;25.08;4.97;;;;;;;34.24;72.23;154669.00;5096023;28;20528;-65
2023/07/20 09:17:14;;;;;;;4.95;3.42;;;;;;;34.34;72.08;154693.38;5095135;28;20183;-65
2023/07/20 09:19:47;;;;;;;6.45;3.88;;;;;;;34.53;72.95;154742.22;5096421;28;20263;-66
2023/07/20 09:22:14;;;;;;;9.38;3.63;;;;;;;34.69;72.57;154783.38;5096043;28;20207;-65
2023/07/20 09:24:41;;;;;;;7.22;3.88;;;;;;;34.88;70.09;154829.63;5095245;28;20180;-67
2023/07/20 09:27:09;;;;;;;6.38;3.58;;;;;;;35.00;71.20;154860.47;5096025;28;20204;-66
2023/07/20 09:29:48;;;;;;;10.38;3.00;;;;;;;35.58;67.09;155008.31;5094871;28;20370;-66
2023/07/20 09:32:20;;;;;;;10.50;3.78;;;;;;;35.95;62.30;155102.22;5094035;28;20188;-66
2023/07/20 09:34:47;;;;;;;5.70;3.17;;;;;;;36.42;59.33;155221.84;5083209;28;20260;-67
2023/07/20 09:37:14;;;;;;;7.35;3.03;;;;;;;36.65;57.67;155281.09;5074036;28;20195;-66
2023/07/20 09:39:45;;;;;;;10.48;3.35;;;;;;;36.88;55.79;155340.22;5074976;28;20659;-67
2023/07/20 09:42:13;;;;;;;6.18;3.05;;;;;;;37.20;55.18;155421.34;5073790;28;20189;-65
2023/07/20 09:44:44;;;;;;;4.70;3.42;;;;;;;37.35;54.03;155459.94;5073040;28;20185;-66
2023/07/20 09:47:11;;;;;;;9.73;4.15;;;;;;;37.31;51.07;155448.34;5056380;28;20204;-66
2023/07/20 09:49:41;;;;;;;7.90;3.67;;;;;;;36.35;53.19;155205.16;5073921;28;20185;-64
2023/07/20 09:52:09;;;;;;;6.88;4.30;;;;;;;35.97;56.03;155107.38;5072283;28;20718;-64
2023/07/20 09:54:38;;;;;;;5.65;3.95;;;;;;;35.61;59.01;155017.31;5073531;28;20647;-65
2023/07/20 09:57:07;;;;;;;4.18;3.80;;;;;;;35.81;57.88;155066.25;5074149;28;20593;-67
2023/07/20 09:59:34;;;;;;;10.32;3.85;;;;;;;35.70;57.42;155039.22;5073831;28;20189;-66
2023/07/20 10:02:10;;;;;;;7.88;3.65;;;;;;;36.03;58.06;155124.06;5073335;28;20224;-67
2023/07/20 10:04:38;;;;;;;4.30;3.03;;;;;;;35.96;56.40;155104.78;5073731;28;20198;-66
2023/07/20 10:07:11;;;;;;;4.63;3.20;;;;;;;36.09;57.12;155138.22;5073344;28;20231;-66
2023/07/20 10:09:41;;;;;;;7.15;3.72;;;;;;;35.97;55.86;155107.38;5073566;28;20248;-69
2023/07/20 10:12:10;;;;;;;6.97;4.07;;;;;;;36.17;56.01;155160.13;5073400;28;20188;-69
2023/07/20 10:14:41;;;;;;;9.48;4.10;;;;;;;36.55;54.77;155256.59;5072185;28;20188;-63
2023/07/20 10:17:14;;;;;;;12.43;4.68;;;;;;;36.80;53.81;155318.38;5073592;28;20563;-68
2023/07/20 10:19:45;;;;;;;6.53;3.88;;;;;;;36.64;53.52;155278.50;5072642;28;20641;-65
2023/07/20 10:22:16;;;;;;;12.73;3.85;;;;;;;36.25;53.01;155179.41;5073032;28;20219;-68
2023/07/20 10:24:47;;;;;;;5.35;3.70;;;;;;;35.99;55.07;155112.50;5072808;28;20184;-65
2023/07/20 10:27:14;;;;;;;7.15;3.58;;;;;;;36.12;55.32;155145.97;5072899;28;20581;-65
2023/07/20 10:29:42;;;;;;;4.53;3.50;;;;;;;36.11;54.26;155144.69;5072821;28;20220;-66
2023/07/20 10:32:10;;;;;;;5.03;3.67;;;;;;;36.20;54.86;155165.31;5073030;28;20185;-66
2023/07/20 10:34:37;;;;;;;6.65;3.80;;;;;;;36.31;55.70;155194.88;5072651;28;20655;-66
2023/07/20 10:37:05;;;;;;;11.35;3.40;;;;;;;36.65;53.90;155279.78;5073140;28;20661;-67
2023/07/20 10:39:33;;;;;;;8.55;3.17;;;;;;;36.73;53.39;155300.38;5072759;28;20180;-67
2023/07/20 10:42:04;;;;;;;4.07;2.97;;;;;;;37.00;52.53;155369.84;5072217;28;20185;-67
2023/07/20 10:44:31;;;;;;;8.10;2.97;;;;;;;37.25;51.10;155434.25;5073011;28;20184;-66
2023/07/20 10:47:02;;;;;;;10.23;2.70;;;;;;;37.39;50.94;155470.22;5055109;28;20224;-69
2023/07/20 10:49:33;;;;;;;4.60;2.60;;;;;;;37.33;51.14;155454.81;5072656;28;20219;-69
2023/07/20 10:52:04;;;;;;;3.90;2.60;;;;;;;37.13;51.31;155402.06;5073004;28;20232;-66
2023/07/20 10:54:52;;;;;;;9.48;2.80;;;;;;;37.06;51.68;155386.59;5073284;28;20187;-64
2023/07/20 10:57:29;;;;;;;7.78;3.10;;;;;;;36.88;52.37;155340.22;5064536;28;20207;-66
2023/07/20 11:00:11;;;;;;;12.57;3.88;;;;;;;36.79;52.33;155315.81;5072880;28;20188;-67
2023/07/20 11:02:45;;;;;;;3.83;2.67;;;;;;;36.53;53.07;155250.19;5072353;28;20272;-64
2023/07/20 11:05:38;;;;;;;2.65;2.45;;;;;;;36.08;55.50;155135.66;5077383;28;20193;-66
2023/07/20 11:08:07;;;;;;;8.30;2.80;;;;;;;36.09;55.67;155138.22;5084501;28;20230;-67
2023/07/20 11:10:34;;;;;;;8.77;3.13;;;;;;;35.91;55.88;155093.22;5076496;28;20192;-65
2023/07/20 11:13:21;;;;;;;8.15;2.92;;;;;;;36.14;57.59;155152.44;5075740;28;20185;-65
2023/07/20 11:16:04;;;;;;;5.55;2.45;;;;;;;36.07;58.70;155134.34;5075999;28;20193;-66
2023/07/20 11:18:34;;;;;;;8.02;3.33;;;;;;;35.93;57.08;155097.09;5075904;28;20180;-68
2023/07/20 11:21:02;;;;;;;12.13;3.28;;;;;;;36.03;58.71;155122.81;5079756;28;20633;-70
2023/07/20 11:23:32;;;;;;;3.67;2.20;;;;;;;36.15;56.80;155153.72;5078636;28;20181;-69
2023/07/20 11:26:00;;;;;;;6.82;2.47;;;;;;;36.10;57.77;155140.81;5077250;28;20631;-69